Time;durP1;ratioP1;P1;durP2;ratioP2;P2;SDS_P1;SDS_P2;PMS_P1;PMS_P2;Temp;Humidity;BMP_temperature;BMP_pressure;BME280_temperature;BME280_humidity;BME280_pressure;Samples;Min_cycle;Max_cycle;Signal;HPM_P1;HPM_P2
2023/10/31 00:01:58;;;;;;;16.13;9.98;;;;;;;18.18;59.46;99728.72;5059233;28;20081;-43
2023/10/31 00:04:25;;;;;;;15.23;9.15;;;;;;;18.17;59.53;99732.44;5061069;28;20044;-43
2023/10/31 00:06:52;;;;;;;15.18;9.77;;;;;;;18.16;59.27;99733.44;5062624;28;20044;-43
2023/10/31 00:09:18;;;;;;;17.08;10.52;;;;;;;18.16;59.58;99729.91;5056020;28;20510;-44
2023/10/31 00:11:45;;;;;;;15.93;9.73;;;;;;;18.16;59.59;99740.66;5060052;28;20068;-44
2023/10/31 00:14:11;;;;;;;14.77;9.25;;;;;;;18.16;59.28;99736.13;5057065;28;20055;-44
2023/10/31 00:16:57;;;;;;;15.30;8.88;;;;;;;18.15;59.45;99730.94;5062124;28;20052;-43
2023/10/31 00:19:24;;;;;;;14.02;8.70;;;;;;;18.15;59.70;99739.00;5062145;28;20044;-43
2023/10/31 00:21:50;;;;;;;17.38;9.90;;;;;;;18.15;59.42;99739.00;5060353;28;20071;-43
2023/10/31 00:24:17;;;;;;;15.57;9.35;;;;;;;18.13;59.59;99733.81;5061471;28;20099;-43
2023/10/31 00:26:44;;;;;;;15.20;9.30;;;;;;;18.14;59.23;99735.47;5061430;28;20048;-43
2023/10/31 00:29:10;;;;;;;16.15;9.82;;;;;;;18.13;59.27;99738.31;5061462;28;20048;-43
2023/10/31 00:31:40;;;;;;;14.20;8.98;;;;;;;18.13;59.27;99738.31;5063073;28;20063;-43
2023/10/31 00:34:08;;;;;;;13.82;8.80;;;;;;;18.13;59.35;99738.31;5060471;28;20080;-43
2023/10/31 00:36:34;;;;;;;15.35;8.73;;;;;;;18.12;59.30;99731.28;5059644;28;20456;-44
2023/10/31 00:39:01;;;;;;;15.30;9.15;;;;;;;18.11;59.31;99738.50;5060209;28;20460;-43
2023/10/31 00:41:28;;;;;;;15.85;9.38;;;;;;;18.12;59.47;99742.03;5065818;28;20048;-43
2023/10/31 00:43:54;;;;;;;13.43;8.43;;;;;;;18.11;59.45;99746.56;5061801;28;20052;-44
2023/10/31 00:46:21;;;;;;;14.35;8.45;;;;;;;18.10;59.32;99750.25;5060237;28;20421;-43
2023/10/31 00:48:48;;;;;;;12.95;7.85;;;;;;;18.10;59.58;99752.94;5059908;28;20131;-44
2023/10/31 00:51:14;;;;;;;13.45;8.13;;;;;;;18.10;59.50;99755.63;5061743;28;20051;-43
2023/10/31 00:53:41;;;;;;;12.68;7.70;;;;;;;18.10;59.77;99754.78;5054745;28;20383;-43
2023/10/31 00:56:08;;;;;;;13.07;8.48;;;;;;;18.09;59.31;99753.97;5058097;28;20056;-43
2023/10/31 00:58:34;;;;;;;13.50;8.68;;;;;;;18.10;59.42;99760.16;5059193;28;20352;-43
2023/10/31 01:01:01;;;;;;;12.60;7.75;;;;;;;18.09;59.34;99763.84;5060474;28;20061;-43
2023/10/31 01:03:28;;;;;;;12.95;7.75;;;;;;;18.09;59.39;99759.31;5059753;28;20255;-44
2023/10/31 01:05:55;;;;;;;11.60;7.43;;;;;;;18.09;59.13;99763.84;5055822;28;20041;-44
2023/10/31 01:08:22;;;;;;;12.18;7.50;;;;;;;18.08;59.44;99760.31;5061283;28;20049;-43
2023/10/31 01:10:48;;;;;;;12.85;7.90;;;;;;;18.08;59.04;99762.16;5060511;28;20472;-43
2023/10/31 01:13:15;;;;;;;11.52;7.60;;;;;;;18.07;58.93;99769.38;5066098;28;20047;-43
2023/10/31 01:15:41;;;;;;;11.63;7.75;;;;;;;18.07;59.04;99766.72;5065218;28;20041;-43
2023/10/31 01:18:08;;;;;;;12.88;7.70;;;;;;;18.06;58.84;99766.91;5063144;28;20045;-43
2023/10/31 01:20:35;;;;;;;13.48;8.15;;;;;;;18.06;58.95;99766.91;5060207;28;20055;-42
2023/10/31 01:23:01;;;;;;;11.95;6.85;;;;;;;18.05;59.09;99766.06;5058827;28;20128;-43
2023/10/31 01:25:28;;;;;;;10.95;7.05;;;;;;;18.04;59.00;99764.38;5057123;28;20049;-43
2023/10/31 01:27:55;;;;;;;11.20;6.55;;;;;;;18.04;59.23;99772.41;5058573;28;20474;-43
2023/10/31 01:30:21;;;;;;;12.30;7.38;;;;;;;18.03;58.89;99769.94;5057418;28;20127;-43
2023/10/31 01:32:48;;;;;;;11.57;6.95;;;;;;;18.04;59.12;99775.09;5064979;28;20445;-44
2023/10/31 01:35:15;;;;;;;11.32;6.68;;;;;;;18.03;59.02;99777.97;5060798;28;20375;-43
2023/10/31 01:37:41;;;;;;;11.35;7.50;;;;;;;18.02;59.30;99771.78;5061090;28;20044;-43
2023/10/31 01:40:12;;;;;;;11.43;6.55;;;;;;;18.00;59.25;99776.47;5058929;28;20045;-44
2023/10/31 01:42:39;;;;;;;11.23;7.05;;;;;;;18.01;58.87;99772.81;5060825;28;20053;-43
2023/10/31 01:45:06;;;;;;;10.20;6.85;;;;;;;18.00;59.06;99776.47;5059818;28;20369;-43
2023/10/31 01:47:33;;;;;;;9.48;6.07;;;;;;;17.99;59.13;99781.00;5062158;28;20045;-44
2023/10/31 01:50:00;;;;;;;9.65;6.25;;;;;;;17.99;59.01;99785.53;5061702;28;20112;-43
2023/10/31 01:52:27;;;;;;;10.43;6.35;;;;;;;17.98;59.14;99790.06;5060915;28;20328;-43
2023/10/31 01:54:54;;;;;;;9.05;5.72;;;;;;;17.98;58.81;99786.56;5059246;28;20057;-43
2023/10/31 01:57:22;;;;;;;9.80;6.20;;;;;;;17.98;59.21;99789.25;5060571;28;20400;-44
2023/10/31 01:59:49;;;;;;;11.00;6.40;;;;;;;17.96;58.97;99792.06;5058845;28;20044;-43
2023/10/31 02:02:16;;;;;;;11.32;6.78;;;;;;;17.97;58.66;99792.94;5059988;28;20056;-44
2023/10/31 02:04:43;;;;;;;10.27;5.85;;;;;;;17.96;58.88;99802.81;5058508;28;20048;-43
2023/10/31 02:07:09;;;;;;;10.07;5.88;;;;;;;17.96;58.83;99802.81;5055694;28;20076;-44
2023/10/31 02:09:36;;;;;;;9.35;6.13;;;;;;;17.94;58.82;99802.16;5058452;28;20291;-44
2023/10/31 02:12:03;;;;;;;10.00;6.40;;;;;;;17.95;59.30;99806.50;5057471;28;20118;-43
2023/10/31 02:14:29;;;;;;;10.02;5.93;;;;;;;17.94;59.33;99801.34;5060986;28;20103;-43
2023/10/31 02:16:56;;;;;;;10.20;6.07;;;;;;;17.93;59.33;99803.19;5061052;28;20053;-43
2023/10/31 02:19:23;;;;;;;10.32;6.32;;;;;;;17.94;59.11;99810.22;5062077;28;20052;-45
2023/10/31 02:21:49;;;;;;;10.63;5.75;;;;;;;17.93;58.88;99811.22;5060277;28;20116;-44
2023/10/31 02:24:16;;;;;;;8.95;5.55;;;;;;;17.93;59.09;99818.41;5060010;28;20110;-43
2023/10/31 02:26:43;;;;;;;7.97;5.70;;;;;;;17.92;58.86;99816.75;5059767;28;20072;-44
2023/10/31 02:29:09;;;;;;;9.07;5.50;;;;;;;17.92;59.27;99825.63;5058051;28;20045;-43
2023/10/31 02:31:36;;;;;;;8.40;5.72;;;;;;;17.92;59.51;99824.78;5057338;28;20139;-43
2023/10/31 02:34:03;;;;;;;9.70;6.00;;;;;;;17.90;59.24;99819.63;5059938;28;20131;-43
2023/10/31 02:36:29;;;;;;;8.68;5.05;;;;;;;17.91;59.29;99825.81;5060001;28;20140;-42
2023/10/31 02:38:56;;;;;;;9.77;5.47;;;;;;;17.92;59.21;99830.16;5063261;28;20047;-43
2023/10/31 02:41:23;;;;;;;7.40;4.88;;;;;;;17.91;59.27;99837.38;5061786;28;20080;-43
2023/10/31 02:43:50;;;;;;;6.97;4.32;;;;;;;17.90;59.57;99835.69;5060218;28;20126;-43
2023/10/31 02:46:17;;;;;;;8.77;4.85;;;;;;;17.90;59.58;99841.06;5062198;28;20625;-43
2023/10/31 02:48:44;;;;;;;8.40;5.15;;;;;;;17.91;59.48;99841.91;5060437;28;20136;-42
2023/10/31 02:51:11;;;;;;;7.13;4.78;;;;;;;17.90;59.33;99849.09;5058513;28;20541;-45
2023/10/31 02:53:37;;;;;;;9.07;5.32;;;;;;;17.89;59.38;99843.91;5056425;28;20374;-43
2023/10/31 02:56:04;;;;;;;8.38;4.78;;;;;;;17.89;59.25;99850.13;5058014;28;20079;-44
2023/10/31 02:58:31;;;;;;;7.68;4.53;;;;;;;17.90;59.44;99861.69;5056702;28;20041;-43
2023/10/31 03:00:57;;;;;;;7.05;4.25;;;;;;;17.89;59.57;99860.84;5061112;28;20036;-46
2023/10/31 03:03:24;;;;;;;7.95;4.50;;;;;;;17.88;59.38;99851.13;5059186;28;20119;-43
2023/10/31 03:05:51;;;;;;;7.05;4.22;;;;;;;17.88;59.62;99863.69;5061688;28;20052;-43
2023/10/31 03:08:20;;;;;;;8.05;4.22;;;;;;;17.88;59.72;99869.03;5059375;28;20086;-44
2023/10/31 03:10:49;;;;;;;7.30;4.28;;;;;;;17.89;59.37;99865.34;5056223;28;20054;-43
2023/10/31 03:13:17;;;;;;;6.55;4.35;;;;;;;17.88;59.45;99875.25;5064781;28;20082;-44
2023/10/31 03:15:45;;;;;;;5.95;3.83;;;;;;;17.88;59.77;99880.59;5062438;28;20472;-44
2023/10/31 03:18:11;;;;;;;8.45;4.30;;;;;;;17.88;59.68;99877.91;5062636;28;20399;-43
2023/10/31 03:20:38;;;;;;;5.95;3.92;;;;;;;17.88;59.47;99877.09;5061308;28;20060;-44
2023/10/31 03:23:05;;;;;;;6.70;4.25;;;;;;;17.87;59.54;99881.63;5063041;28;20060;-44
2023/10/31 03:25:31;;;;;;;7.28;4.13;;;;;;;17.87;59.80;99886.97;5059043;28;20075;-44
2023/10/31 03:27:58;;;;;;;5.60;3.67;;;;;;;17.87;59.63;99886.97;5065243;28;20594;-46
2023/10/31 03:30:24;;;;;;;5.35;3.72;;;;;;;17.86;59.64;99896.03;5065372;28;20914;-43
2023/10/31 03:32:51;;;;;;;7.00;4.05;;;;;;;17.87;59.66;99899.56;5065569;28;20049;-44
2023/10/31 03:35:18;;;;;;;5.07;3.65;;;;;;;17.86;59.53;99900.56;5065391;28;20049;-43
2023/10/31 03:37:44;;;;;;;5.43;3.50;;;;;;;17.86;60.00;99895.22;5061385;28;20103;-43
2023/10/31 03:40:11;;;;;;;6.40;4.07;;;;;;;17.85;59.66;99906.91;5060631;28;20388;-43
2023/10/31 03:42:38;;;;;;;4.82;3.45;;;;;;;17.85;59.69;99909.59;5059932;28;20138;-43
2023/10/31 03:45:05;;;;;;;5.55;3.45;;;;;;;17.85;59.60;99906.91;5062270;28;20106;-44
2023/10/31 03:47:31;;;;;;;4.65;3.50;;;;;;;17.84;59.81;99906.09;5069853;28;20056;-44
2023/10/31 03:49:58;;;;;;;6.95;4.00;;;;;;;17.84;59.57;99910.63;5059305;28;20044;-43
2023/10/31 03:52:24;;;;;;;4.85;3.50;;;;;;;17.84;59.88;99913.31;5064616;28;20040;-43
2023/10/31 03:54:51;;;;;;;5.47;3.20;;;;;;;17.83;59.68;99919.69;5066040;28;20128;-44
2023/10/31 03:57:17;;;;;;;5.47;3.45;;;;;;;17.82;59.67;99916.16;5061715;28;20053;-43
2023/10/31 03:59:44;;;;;;;5.57;3.67;;;;;;;17.83;59.56;99919.69;5063982;28;20062;-43
2023/10/31 04:02:11;;;;;;;4.75;3.38;;;;;;;17.81;59.62;99908.28;5060337;28;20395;-44
2023/10/31 04:04:38;;;;;;;4.93;3.25;;;;;;;17.82;59.92;99920.69;5059640;28;20138;-44
2023/10/31 04:07:04;;;;;;;4.82;3.28;;;;;;;17.81;59.79;99919.00;5063917;28;20068;-43
2023/10/31 04:09:31;;;;;;;5.03;3.38;;;;;;;17.81;59.63;99916.31;5059348;28;20512;-44
2023/10/31 04:11:58;;;;;;;5.47;2.95;;;;;;;17.80;59.60;99920.03;5060294;28;20456;-43
2023/10/31 04:14:24;;;;;;;4.57;3.10;;;;;;;17.80;59.80;99926.22;5060079;28;20051;-44
2023/10/31 04:16:51;;;;;;;5.43;3.38;;;;;;;17.80;59.88;99925.38;5062501;28;20084;-44
2023/10/31 04:19:17;;;;;;;5.30;3.08;;;;;;;17.79;59.66;99932.59;5063026;28;20041;-44
2023/10/31 04:21:44;;;;;;;4.90;3.17;;;;;;;17.79;60.03;99929.09;5066881;28;20125;-43
2023/10/31 04:24:11;;;;;;;4.65;3.35;;;;;;;17.79;60.00;99940.63;5063442;28;20049;-43
2023/10/31 04:26:40;;;;;;;5.35;2.90;;;;;;;17.79;60.00;99939.81;5059488;28;20056;-43
2023/10/31 04:29:06;;;;;;;4.22;2.88;;;;;;;17.78;59.89;99941.66;5059449;28;20105;-42
2023/10/31 04:31:33;;;;;;;4.20;2.88;;;;;;;17.77;59.82;99942.66;5063137;28;20514;-43
2023/10/31 04:34:09;;;;;;;5.20;2.95;;;;;;;17.77;59.50;99942.66;5057571;28;20049;-44
2023/10/31 04:36:36;;;;;;;4.25;3.50;;;;;;;17.79;59.95;99945.16;5063124;28;20049;-44
2023/10/31 04:39:02;;;;;;;4.43;2.63;;;;;;;17.77;59.65;99945.34;5057299;28;20086;-43
2023/10/31 04:41:29;;;;;;;3.85;2.50;;;;;;;17.75;59.45;99937.47;5058157;28;20512;-44
2023/10/31 04:43:56;;;;;;;3.88;2.80;;;;;;;17.75;59.43;99945.50;5060369;28;20387;-44
2023/10/31 04:46:26;;;;;;;4.25;2.72;;;;;;;17.75;60.07;99956.22;5066058;28;20479;-43
2023/10/31 04:48:53;;;;;;;3.92;2.55;;;;;;;17.75;59.30;99963.44;5064051;28;20142;-42
2023/10/31 04:51:20;;;;;;;4.97;3.08;;;;;;;17.75;59.87;99960.75;5060773;28;20083;-44
2023/10/31 04:53:47;;;;;;;5.45;2.20;;;;;;;17.75;59.68;99961.59;5069632;28;20041;-44
2023/10/31 04:56:15;;;;;;;3.67;2.40;;;;;;;17.75;59.48;99963.44;5060357;28;20056;-44
2023/10/31 04:58:42;;;;;;;4.38;2.17;;;;;;;17.74;59.74;99969.78;5057080;28;20045;-43
2023/10/31 05:01:09;;;;;;;4.75;2.85;;;;;;;17.73;59.86;99968.94;5058508;28;20055;-43
2023/10/31 05:03:36;;;;;;;4.68;2.58;;;;;;;17.73;59.81;99968.94;5060299;28;20057;-44
2023/10/31 05:06:04;;;;;;;4.20;3.00;;;;;;;17.73;59.62;99968.94;5061987;28;20133;-44
2023/10/31 05:08:32;;;;;;;3.83;2.80;;;;;;;17.73;60.10;99970.78;5060150;28;20044;-44
2023/10/31 05:10:59;;;;;;;3.75;2.47;;;;;;;17.73;59.70;99971.63;5061331;28;20092;-43
2023/10/31 05:13:26;;;;;;;2.80;2.10;;;;;;;17.72;59.69;99979.81;5060738;28;20371;-43
2023/10/31 05:15:52;;;;;;;3.35;2.17;;;;;;;17.71;59.68;99979.00;5063804;28;20394;-43
2023/10/31 05:18:19;;;;;;;3.40;2.40;;;;;;;17.71;59.70;99987.03;5057768;28;20267;-43
2023/10/31 05:20:46;;;;;;;3.72;2.42;;;;;;;17.71;59.59;99992.38;5062525;28;20045;-43
2023/10/31 05:23:13;;;;;;;4.03;2.10;;;;;;;17.71;59.43;99991.56;5064847;28;20113;-43
2023/10/31 05:25:39;;;;;;;3.33;2.40;;;;;;;17.71;59.41;99992.38;5062395;28;20053;-43
2023/10/31 05:28:06;;;;;;;3.47;2.28;;;;;;;17.71;59.59;99996.91;5064379;28;20107;-43
2023/10/31 05:30:32;;;;;;;3.67;2.50;;;;;;;17.69;59.68;100002.47;5057460;28;20364;-43
2023/10/31 05:32:59;;;;;;;3.08;2.03;;;;;;;17.70;59.39;100000.63;5061426;28;20113;-45
2023/10/31 05:35:26;;;;;;;2.90;2.45;;;;;;;17.69;59.32;100002.47;5058353;28;20433;-44
2023/10/31 05:37:53;;;;;;;3.75;2.38;;;;;;;17.69;59.81;99999.78;5057691;28;20445;-43
2023/10/31 05:40:22;;;;;;;3.63;2.00;;;;;;;17.68;59.26;100003.44;5058296;28;20099;-44
2023/10/31 05:42:48;;;;;;;3.63;2.20;;;;;;;17.68;59.70;99999.94;5059690;28;20053;-44
2023/10/31 05:45:15;;;;;;;3.53;2.45;;;;;;;17.67;59.48;100012.50;5059369;28;20049;-44
2023/10/31 05:47:42;;;;;;;2.38;1.92;;;;;;;17.66;59.31;100012.69;5062096;28;20295;-43
2023/10/31 05:50:09;;;;;;;3.53;2.00;;;;;;;17.66;59.49;100021.56;5059560;28;20045;-43
2023/10/31 05:52:36;;;;;;;3.20;2.13;;;;;;;17.65;59.28;100016.38;5058813;28;20052;-42
2023/10/31 05:55:03;;;;;;;3.88;2.17;;;;;;;17.65;59.32;100025.25;5059163;28;20505;-43
2023/10/31 05:57:29;;;;;;;2.58;1.90;;;;;;;17.64;59.10;100028.91;5059204;28;20084;-44
2023/10/31 05:59:56;;;;;;;3.60;2.35;;;;;;;17.64;59.59;100030.75;5067832;28;20163;-44
2023/10/31 06:02:22;;;;;;;4.03;2.17;;;;;;;17.62;59.18;100030.09;5066427;28;20113;-43
2023/10/31 06:04:49;;;;;;;3.50;2.13;;;;;;;17.61;59.21;100031.09;5061468;28;20511;-42
2023/10/31 06:07:16;;;;;;;3.70;2.15;;;;;;;17.61;59.33;100033.78;5060723;28;20048;-43
2023/10/31 06:09:43;;;;;;;2.88;2.10;;;;;;;17.60;59.36;100029.44;5059042;28;20049;-43
2023/10/31 06:12:09;;;;;;;3.67;2.28;;;;;;;17.59;59.31;100028.59;5059697;28;20056;-44
2023/10/31 06:14:37;;;;;;;3.13;2.08;;;;;;;17.59;58.94;100035.81;5055661;28;20168;-43
2023/10/31 06:17:04;;;;;;;2.75;1.77;;;;;;;17.58;59.27;100040.34;5057693;28;20111;-43
2023/10/31 06:19:35;;;;;;;3.78;2.30;;;;;;;17.58;59.31;100039.50;5062457;28;20090;-42
2023/10/31 06:22:03;;;;;;;3.65;1.92;;;;;;;17.58;59.40;100050.22;5066015;28;20056;-42
2023/10/31 06:24:29;;;;;;;3.58;2.15;;;;;;;17.58;59.07;100048.38;5061041;28;20048;-42
2023/10/31 06:26:56;;;;;;;3.72;2.28;;;;;;;17.57;58.99;100054.75;5063280;28;20329;-43
2023/10/31 06:29:23;;;;;;;3.40;2.47;;;;;;;17.56;58.92;100047.69;5061033;28;20102;-44
2023/10/31 06:32:09;;;;;;;3.92;2.17;;;;;;;17.56;59.11;100053.03;5056694;28;20056;-43
2023/10/31 06:34:36;;;;;;;3.30;2.08;;;;;;;17.56;59.23;100052.22;5058643;28;20187;-43
2023/10/31 06:37:03;;;;;;;3.15;2.00;;;;;;;17.56;58.84;100070.97;5057627;28;20079;-42
2023/10/31 06:39:29;;;;;;;2.92;2.20;;;;;;;17.55;59.39;100069.31;5057622;28;20081;-44
2023/10/31 06:41:56;;;;;;;2.47;1.80;;;;;;;17.55;58.98;100070.13;5058806;28;20036;-42
2023/10/31 06:44:22;;;;;;;5.03;2.05;;;;;;;17.54;59.36;100071.16;5059659;28;20452;-43
2023/10/31 06:46:49;;;;;;;4.00;2.05;;;;;;;17.54;59.23;100070.31;5058546;28;20056;-43
2023/10/31 06:49:16;;;;;;;3.28;2.10;;;;;;;17.53;58.97;100080.19;5060607;28;20541;-43
2023/10/31 06:51:42;;;;;;;4.78;2.00;;;;;;;17.52;59.00;100070.47;5062048;28;20076;-43
2023/10/31 06:54:09;;;;;;;2.90;1.73;;;;;;;17.52;58.90;100083.88;5069051;28;20155;-43
2023/10/31 06:56:35;;;;;;;3.53;2.13;;;;;;;17.52;58.86;100086.53;5069187;28;20048;-42
2023/10/31 06:59:02;;;;;;;3.78;1.75;;;;;;;17.51;59.18;100077.66;5063192;28;20057;-42
2023/10/31 07:01:29;;;;;;;3.40;1.65;;;;;;;17.52;58.88;100078.50;5064912;28;20060;-43
2023/10/31 07:03:56;;;;;;;2.85;1.55;;;;;;;17.51;59.21;100084.88;5064101;28;20106;-44
2023/10/31 07:06:22;;;;;;;2.88;1.67;;;;;;;17.52;59.01;100097.25;5061254;28;20051;-45
2023/10/31 07:08:49;;;;;;;3.13;2.15;;;;;;;17.52;58.80;100099.94;5063549;28;20132;-43
2023/10/31 07:11:15;;;;;;;2.92;1.63;;;;;;;17.53;59.36;100104.31;5061516;28;20405;-43
2023/10/31 07:13:42;;;;;;;2.75;1.80;;;;;;;17.52;58.96;100102.63;5057823;28;20509;-43
2023/10/31 07:16:09;;;;;;;4.13;1.92;;;;;;;17.52;59.16;100110.66;5060756;28;20436;-43
2023/10/31 07:18:35;;;;;;;2.10;1.50;;;;;;;17.53;58.66;100112.34;5053635;28;21201;-44
2023/10/31 07:21:03;;;;;;;2.70;1.77;;;;;;;17.53;58.89;100117.72;5060020;28;20131;-44
2023/10/31 07:23:29;;;;;;;2.63;1.55;;;;;;;17.54;58.79;100113.19;5056968;28;20593;-43
2023/10/31 07:25:56;;;;;;;3.67;1.77;;;;;;;17.53;58.68;100120.41;5062380;28;20045;-43
2023/10/31 07:28:22;;;;;;;3.65;1.80;;;;;;;17.55;58.65;100123.72;5061135;28;20064;-44
2023/10/31 07:30:50;;;;;;;3.55;2.10;;;;;;;17.54;59.12;100123.91;5063371;28;20049;-43
2023/10/31 07:33:16;;;;;;;2.60;1.60;;;;;;;17.55;59.00;100131.75;5059876;28;20381;-43
2023/10/31 07:35:43;;;;;;;2.67;1.90;;;;;;;17.56;58.98;100137.97;5060347;28;20056;-44
2023/10/31 07:38:10;;;;;;;3.53;1.80;;;;;;;17.55;58.45;100131.75;5057921;28;20059;-43
2023/10/31 07:40:37;;;;;;;3.13;1.60;;;;;;;17.56;58.98;100138.78;5061495;28;20053;-42
2023/10/31 07:43:03;;;;;;;3.33;1.88;;;;;;;17.56;58.83;100140.63;5056222;28;20057;-43
2023/10/31 07:45:30;;;;;;;2.67;1.70;;;;;;;17.57;58.88;100147.66;5064007;28;20133;-44
2023/10/31 07:47:56;;;;;;;2.08;1.50;;;;;;;17.57;58.79;100143.16;5060681;28;20514;-43
2023/10/31 07:50:23;;;;;;;2.45;1.70;;;;;;;17.57;58.86;100145.84;5061448;28;20049;-42
2023/10/31 07:52:50;;;;;;;3.33;1.80;;;;;;;17.59;58.80;100146.50;5061208;28;20125;-43
2023/10/31 07:55:16;;;;;;;2.13;1.58;;;;;;;17.66;58.63;100147.50;5061386;28;20063;-42
2023/10/31 07:57:43;;;;;;;2.40;1.70;;;;;;;17.78;58.31;100144.53;5062645;28;20083;-43
2023/10/31 08:00:11;;;;;;;3.28;1.85;;;;;;;17.90;58.23;100145.84;5066924;28;20048;-43
2023/10/31 08:02:38;;;;;;;2.53;1.60;;;;;;;18.03;58.37;100145.31;5065563;28;20052;-45
2023/10/31 08:05:05;;;;;;;2.58;1.35;;;;;;;18.14;58.08;100144.97;5059938;28;20084;-46
2023/10/31 08:07:31;;;;;;;2.08;1.55;;;;;;;18.25;57.69;100150.81;5064111;28;20052;-43
2023/10/31 08:09:58;;;;;;;1.80;1.50;;;;;;;18.37;57.80;100148.59;5069213;28;20056;-43
2023/10/31 08:12:25;;;;;;;2.85;1.77;;;;;;;18.49;57.48;100151.72;5061068;28;20056;-43
2023/10/31 08:14:51;;;;;;;3.58;1.83;;;;;;;18.59;56.83;100151.53;5065084;28;20137;-43
2023/10/31 08:17:18;;;;;;;2.50;1.73;;;;;;;18.70;57.35;100157.38;5061970;28;20449;-44
2023/10/31 08:19:46;;;;;;;2.35;1.50;;;;;;;18.78;56.81;100151.13;5059636;28;20053;-44
2023/10/31 08:22:13;;;;;;;3.40;2.03;;;;;;;18.87;56.98;100157.28;5063989;28;20759;-45
2023/10/31 08:24:40;;;;;;;2.58;1.42;;;;;;;18.96;56.51;100149.00;5060680;28;20056;-46
2023/10/31 08:27:07;;;;;;;2.83;1.80;;;;;;;19.03;55.98;100149.16;5062022;28;20317;-44
2023/10/31 08:29:33;;;;;;;2.92;1.95;;;;;;;19.10;56.32;100154.66;5064525;28;20048;-43
2023/10/31 08:32:00;;;;;;;3.17;1.80;;;;;;;19.17;55.88;100150.22;5067277;28;20084;-43
2023/10/31 08:34:27;;;;;;;2.42;1.80;;;;;;;19.23;56.19;100149.53;5064523;28;20125;-43
2023/10/31 08:36:56;;;;;;;2.83;1.88;;;;;;;19.29;55.57;100154.16;5063422;28;20115;-43
2023/10/31 08:39:22;;;;;;;2.10;1.50;;;;;;;19.33;55.74;100155.47;5060296;28;20177;-46
2023/10/31 08:41:53;;;;;;;3.10;1.70;;;;;;;19.35;55.49;100158.00;5064357;28;20049;-43
2023/10/31 08:44:20;;;;;;;2.95;1.80;;;;;;;19.37;55.37;100159.47;5062175;28;20125;-44
2023/10/31 08:46:47;;;;;;;3.25;1.70;;;;;;;19.38;55.93;100160.34;5065914;28;20044;-43
2023/10/31 08:49:15;;;;;;;4.75;1.83;;;;;;;19.37;55.51;100166.72;5064367;28;20076;-43
2023/10/31 08:51:42;;;;;;;2.20;1.63;;;;;;;19.35;55.77;100174.97;5061456;28;20105;-45
2023/10/31 08:54:09;;;;;;;2.38;1.65;;;;;;;19.35;55.99;100168.75;5066508;28;20399;-43
2023/10/31 08:56:36;;;;;;;4.22;2.00;;;;;;;19.33;56.03;100170.78;5063942;28;20530;-43
2023/10/31 08:59:03;;;;;;;2.40;1.35;;;;;;;19.31;55.50;100181.72;5059807;28;20064;-43
2023/10/31 09:01:30;;;;;;;4.03;2.03;;;;;;;19.30;55.91;100187.28;5063337;28;20052;-43
2023/10/31 09:03:58;;;;;;;3.33;1.65;;;;;;;19.28;56.38;100189.28;5063315;28;20080;-44
2023/10/31 09:06:25;;;;;;;3.10;1.52;;;;;;;19.27;56.34;100193.00;5069524;28;20084;-45
2023/10/31 09:08:52;;;;;;;3.70;1.70;;;;;;;19.24;56.31;100194.19;5061877;28;20144;-42
2023/10/31 09:11:18;;;;;;;2.85;1.80;;;;;;;19.23;56.31;100205.94;5062376;28;20040;-43
2023/10/31 09:13:45;;;;;;;3.67;1.70;;;;;;;19.21;56.24;100208.78;5059592;28;20076;-44
2023/10/31 09:16:13;;;;;;;4.65;1.52;;;;;;;19.21;55.82;100216.00;5063997;28;20048;-44
2023/10/31 09:18:41;;;;;;;3.38;1.60;;;;;;;19.21;56.51;100216.00;5065078;28;20048;-44
2023/10/31 09:21:08;;;;;;;6.07;2.05;;;;;;;19.20;56.48;100220.56;5059780;28;20045;-43
2023/10/31 09:23:34;;;;;;;3.45;1.80;;;;;;;19.19;56.22;100212.69;5056932;28;20053;-43
2023/10/31 09:26:01;;;;;;;3.83;1.92;;;;;;;19.19;56.58;100221.56;5063963;28;20056;-43
2023/10/31 09:28:28;;;;;;;4.00;1.88;;;;;;;19.19;56.54;100226.94;5061619;28;20047;-43
2023/10/31 09:30:54;;;;;;;3.38;1.60;;;;;;;19.21;56.65;100234.81;5061189;28;20141;-43
2023/10/31 09:33:21;;;;;;;2.83;1.48;;;;;;;19.22;56.29;100231.97;5057645;28;20052;-44
2023/10/31 09:35:48;;;;;;;2.53;1.50;;;;;;;19.24;56.48;100231.78;5064884;28;20056;-43
2023/10/31 09:38:14;;;;;;;3.63;1.83;;;;;;;19.28;56.96;100235.78;5063979;28;20056;-43
2023/10/31 09:40:41;;;;;;;4.57;1.83;;;;;;;19.32;57.14;100238.97;5062951;28;20404;-44
2023/10/31 09:43:08;;;;;;;6.32;1.70;;;;;;;19.34;57.46;100231.59;5060687;28;20056;-42
2023/10/31 09:45:36;;;;;;;3.47;1.60;;;;;;;19.37;57.32;100225.84;5062174;28;20091;-43
2023/10/31 09:48:03;;;;;;;4.63;1.80;;;;;;;19.40;57.48;100231.69;5058666;28;20056;-42
2023/10/31 09:50:30;;;;;;;3.63;2.00;;;;;;;19.44;57.21;100232.19;5058748;28;20048;-43
2023/10/31 09:52:59;;;;;;;3.42;1.80;;;;;;;19.46;57.32;100243.59;5060198;28;20052;-44
2023/10/31 09:55:26;;;;;;;3.53;1.85;;;;;;;19.48;57.49;100250.44;5057775;28;20504;-43
2023/10/31 09:57:53;;;;;;;5.00;1.73;;;;;;;19.50;56.81;100247.59;5063716;28;20056;-43
2023/10/31 10:00:20;;;;;;;3.75;1.83;;;;;;;19.53;56.88;100246.41;5061756;28;20036;-44
2023/10/31 10:02:47;;;;;;;5.90;1.90;;;;;;;19.55;57.38;100247.91;5058836;28;20056;-43
2023/10/31 10:05:17;;;;;;;5.70;1.95;;;;;;;19.58;57.00;100255.63;5057334;28;20079;-43
2023/10/31 10:07:45;;;;;;;3.40;1.60;;;;;;;19.61;57.02;100257.97;5055868;28;20079;-43
2023/10/31 10:10:12;;;;;;;4.20;2.25;;;;;;;19.63;57.25;100258.63;5066420;28;20040;-43
2023/10/31 10:12:44;;;;;;;4.30;2.20;;;;;;;19.65;57.03;100267.34;5067494;28;20055;-43
2023/10/31 10:15:11;;;;;;;7.38;2.13;;;;;;;19.66;57.06;100271.72;5062435;28;20110;-42
2023/10/31 10:17:41;;;;;;;5.20;2.33;;;;;;;19.68;56.67;100277.75;5057026;28;20051;-42
2023/10/31 10:20:10;;;;;;;7.72;2.67;;;;;;;19.70;56.66;100273.03;5058021;28;20085;-42
2023/10/31 10:22:44;;;;;;;5.47;2.42;;;;;;;19.72;57.32;100270.16;5059451;28;20055;-42
2023/10/31 10:25:15;;;;;;;4.47;2.05;;;;;;;19.74;56.78;100270.84;5059138;28;20053;-42
2023/10/31 10:27:42;;;;;;;8.20;2.10;;;;;;;19.76;56.90;100276.03;5063527;28;20060;-42
2023/10/31 10:30:10;;;;;;;4.25;2.08;;;;;;;19.77;56.78;100269.63;5065936;28;20052;-43
2023/10/31 10:32:37;;;;;;;4.63;2.00;;;;;;;19.78;56.88;100272.16;5065096;28;20079;-43
2023/10/31 10:35:04;;;;;;;3.88;1.83;;;;;;;19.79;56.32;100275.66;5064215;28;20049;-43
2023/10/31 10:37:32;;;;;;;3.72;2.08;;;;;;;19.81;56.95;100276.31;5063155;28;20053;-42
2023/10/31 10:39:59;;;;;;;3.55;1.75;;;;;;;19.81;56.85;100281.69;5064890;28;20080;-42
2023/10/31 10:42:29;;;;;;;4.57;1.67;;;;;;;19.81;56.55;100281.69;5063198;28;20056;-42
2023/10/31 10:45:02;;;;;;;8.00;2.60;;;;;;;19.83;56.47;100279.69;5065981;28;20118;-43
2023/10/31 10:47:30;;;;;;;2.60;1.85;;;;;;;19.84;56.40;100287.56;5065922;28;20094;-42
2023/10/31 10:50:01;;;;;;;4.35;2.03;;;;;;;19.84;56.41;100290.25;5065785;28;20052;-42
2023/10/31 10:52:35;;;;;;;4.70;2.08;;;;;;;19.85;56.07;100281.16;5064152;28;20047;-43
2023/10/31 10:55:16;;;;;;;4.43;1.98;;;;;;;19.85;56.56;100288.38;5061463;28;20060;-42
2023/10/31 10:58:01;;;;;;;2.20;1.30;;;;;;;19.86;56.18;100290.91;5058238;28;20048;-41
2023/10/31 11:00:28;;;;;;;4.07;1.98;;;;;;;19.87;56.18;100286.38;5065706;28;20083;-42
2023/10/31 11:02:57;;;;;;;6.03;2.13;;;;;;;19.88;56.05;100288.88;5062519;28;20056;-42
2023/10/31 11:05:24;;;;;;;4.47;2.05;;;;;;;19.87;56.46;100292.59;5066904;28;20056;-42
2023/10/31 11:07:52;;;;;;;3.63;1.83;;;;;;;19.88;56.50;100296.09;5067233;28;20106;-42
2023/10/31 11:10:19;;;;;;;3.60;1.80;;;;;;;19.87;56.28;100292.59;5063855;28;20155;-42
2023/10/31 11:12:45;;;;;;;5.28;1.67;;;;;;;19.89;55.95;100305.84;5067005;28;20041;-42
2023/10/31 11:15:15;;;;;;;5.65;1.92;;;;;;;19.88;56.01;100304.16;5063783;28;20082;-42
2023/10/31 11:17:44;;;;;;;4.93;1.90;;;;;;;19.86;55.94;100312.44;5062370;28;20402;-42
2023/10/31 11:20:15;;;;;;;2.72;1.63;;;;;;;19.87;55.85;100321.34;5062739;28;20078;-42
2023/10/31 11:22:48;;;;;;;2.70;1.55;;;;;;;19.87;55.64;100332.09;5062239;28;20048;-42
2023/10/31 11:25:20;;;;;;;3.95;1.90;;;;;;;19.87;56.35;100326.72;5064148;28;20048;-42
2023/10/31 11:28:17;;;;;;;4.03;1.60;;;;;;;19.85;55.86;100326.03;5064622;28;20044;-42